createdAt,value
2018-05-21T00:01:58.103Z,62
2018-05-21T00:07:26.778Z,62
2018-05-21T00:12:55.535Z,62
2018-05-21T00:18:24.354Z,62
2018-05-21T00:29:21.911Z,63
2018-05-21T00:34:50.633Z,63
2018-05-21T00:40:19.398Z,63
2018-05-21T00:45:49.225Z,63
2018-05-21T00:51:18.926Z,63
2018-05-21T00:56:48.619Z,63
2018-05-21T01:02:17.344Z,63
2018-05-21T01:07:46.125Z,64
2018-05-21T01:13:14.814Z,64
2018-05-21T01:18:44.608Z,64
2018-05-21T01:24:13.299Z,64
2018-05-21T01:29:42.936Z,64
2018-05-21T01:35:11.787Z,64
2018-05-21T01:40:40.448Z,64
2018-05-21T01:46:10.096Z,65
2018-05-21T01:51:38.901Z,65
2018-05-21T01:57:07.470Z,65
2018-05-21T02:02:36.165Z,65
2018-05-21T02:08:05.787Z,65
2018-05-21T02:13:35.568Z,65
2018-05-21T02:19:05.180Z,65
2018-05-21T02:24:34.814Z,66
2018-05-21T02:30:03.474Z,66
2018-05-21T02:35:32.388Z,66
2018-05-21T02:41:01.934Z,66
2018-05-21T02:46:31.660Z,66
2018-05-21T02:52:00.245Z,66
2018-05-21T02:57:29.805Z,66
2018-05-21T03:02:59.479Z,66
2018-05-21T03:08:28.088Z,67
2018-05-21T03:13:56.711Z,67
2018-05-21T03:19:25.751Z,67
2018-05-21T03:30:22.665Z,67
2018-05-21T03:35:51.349Z,67
2018-05-21T03:41:20.237Z,68
2018-05-21T03:46:48.778Z,68
2018-05-21T03:52:18.475Z,68
2018-05-21T03:57:46.942Z,68
2018-05-21T04:03:16.596Z,68
2018-05-21T04:08:46.352Z,69
2018-05-21T04:14:14.890Z,69
2018-05-21T04:19:44.544Z,69
2018-05-21T04:25:14.563Z,69
2018-05-21T04:30:42.973Z,69
2018-05-21T04:36:12.745Z,70
2018-05-21T04:41:41.380Z,70
2018-05-21T04:47:10.081Z,70
2018-05-21T04:52:39.023Z,70
2018-05-21T04:58:07.594Z,70
2018-05-21T05:03:37.349Z,71
2018-05-21T05:09:07.022Z,71
2018-05-21T05:14:35.738Z,71
2018-05-21T05:20:05.574Z,71
2018-05-21T05:25:34.576Z,71
2018-05-21T05:31:03.121Z,72
2018-05-21T05:36:31.914Z,72
2018-05-21T05:42:00.727Z,72
2018-05-21T05:47:29.598Z,72
2018-05-21T05:47:30.185Z,72
2018-05-21T05:52:58.399Z,72
2018-05-21T05:58:27.416Z,72
2018-05-21T06:03:56.094Z,72
2018-05-21T06:09:26.017Z,72
2018-05-21T06:14:55.829Z,72
2018-05-21T06:20:25.715Z,72
2018-05-21T06:25:55.752Z,72
2018-05-21T06:25:56.451Z,72
2018-05-21T06:31:24.705Z,72
2018-05-21T06:36:53.680Z,72
2018-05-21T06:42:22.532Z,72
2018-05-21T06:47:51.617Z,72
2018-05-21T06:53:21.568Z,72
2018-05-21T06:58:50.594Z,72
2018-05-21T07:04:20.751Z,71
2018-05-21T07:09:49.619Z,71
2018-05-21T07:15:18.708Z,71
2018-05-21T07:20:47.972Z,71
2018-05-21T07:26:17.967Z,70
2018-05-21T07:31:47.044Z,70
2018-05-21T07:37:16.347Z,69
2018-05-21T07:42:45.417Z,69
2018-05-21T07:48:15.613Z,69
2018-05-21T07:53:44.908Z,69
2018-05-21T07:59:14.133Z,68
2018-05-21T08:04:43.345Z,68
2018-05-21T08:10:13.611Z,68
2018-05-21T08:15:42.862Z,68
2018-05-21T08:21:12.120Z,67
2018-05-21T08:26:41.404Z,67
2018-05-21T08:32:11.798Z,67
2018-05-21T08:37:42.089Z,67
2018-05-21T08:43:12.386Z,66
2018-05-21T08:48:41.825Z,66
2018-05-21T08:54:12.188Z,66
2018-05-21T08:59:42.422Z,65
2018-05-21T09:05:11.820Z,65
2018-05-21T09:10:41.228Z,65
2018-05-21T09:16:10.563Z,65
2018-05-21T09:21:41.029Z,64
2018-05-21T09:27:10.600Z,64
2018-05-21T09:32:40.710Z,64
2018-05-21T09:38:10.469Z,63
2018-05-21T09:43:39.606Z,63
2018-05-21T09:49:08.997Z,63
2018-05-21T09:54:39.455Z,62
2018-05-21T10:00:09.177Z,62
2018-05-21T10:05:38.606Z,62
2018-05-21T10:11:08.727Z,62
2018-05-21T10:16:38.186Z,61
2018-05-21T10:22:07.764Z,61
2018-05-21T10:27:37.135Z,60
2018-05-21T10:33:06.873Z,59
2018-05-21T10:38:36.185Z,59
2018-05-21T10:44:06.835Z,58
2018-05-21T10:49:36.846Z,58
2018-05-21T10:55:07.151Z,58
2018-05-21T11:00:36.822Z,58
2018-05-21T11:06:07.589Z,58
2018-05-21T11:11:38.100Z,58
2018-05-21T11:17:08.637Z,58
2018-05-21T11:22:39.351Z,57
2018-05-21T11:28:08.942Z,57
2018-05-21T11:33:38.564Z,57
2018-05-21T11:39:08.512Z,57
2018-05-21T11:44:38.892Z,56
2018-05-21T11:50:08.632Z,56
2018-05-21T11:55:38.338Z,56
2018-05-21T12:01:08.058Z,55
2018-05-21T12:06:37.723Z,55
2018-05-21T12:12:07.610Z,55
2018-05-21T12:17:37.180Z,54
2018-05-21T12:23:07.874Z,54
2018-05-21T12:28:37.607Z,53
2018-05-21T12:34:08.460Z,53
2018-05-21T12:39:38.111Z,53
2018-05-21T12:45:08.729Z,53
2018-05-21T12:50:38.409Z,52
2018-05-21T12:56:09.247Z,52
2018-05-21T13:01:38.917Z,52
2018-05-21T13:07:08.642Z,51
2018-05-21T13:12:39.451Z,51
2018-05-21T13:18:09.117Z,51
2018-05-21T13:23:39.818Z,50
2018-05-21T13:29:10.565Z,50
2018-05-21T13:34:40.389Z,50
2018-05-21T13:40:11.596Z,50
2018-05-21T13:45:41.832Z,50
2018-05-21T13:51:11.803Z,50
2018-05-21T13:56:42.378Z,50
2018-05-21T14:02:12.014Z,50
2018-05-21T14:07:41.741Z,50
2018-05-21T14:13:11.577Z,49
2018-05-21T14:18:42.325Z,49
2018-05-21T14:24:12.964Z,49
2018-05-21T14:29:43.850Z,49
2018-05-21T14:35:13.429Z,49
2018-05-21T14:40:44.335Z,49
2018-05-21T14:46:14.046Z,49
2018-05-21T14:51:43.688Z,49
2018-05-21T14:57:13.399Z,48
2018-05-21T15:02:44.175Z,48
2018-05-21T15:08:13.969Z,48
2018-05-21T15:13:44.735Z,48
2018-05-21T15:19:14.654Z,48
2018-05-21T15:24:45.183Z,47
2018-05-21T15:30:15.853Z,47
2018-05-21T15:35:46.584Z,47
2018-05-21T15:41:17.354Z,47
2018-05-21T15:46:48.220Z,47
2018-05-21T15:52:17.958Z,47
2018-05-21T15:57:48.523Z,47
2018-05-21T16:03:19.557Z,47
2018-05-21T16:08:48.938Z,46
2018-05-21T16:14:19.740Z,46
2018-05-21T16:19:50.444Z,46
2018-05-21T16:25:21.054Z,46
2018-05-21T16:30:50.935Z,46
2018-05-21T16:36:21.436Z,46
2018-05-21T16:41:52.071Z,46
2018-05-21T16:47:22.814Z,46
2018-05-21T16:52:52.546Z,46
2018-05-21T16:58:22.983Z,45
2018-05-21T17:03:53.706Z,45
2018-05-21T17:09:23.274Z,45
2018-05-21T17:14:53.863Z,45
2018-05-21T17:20:23.520Z,45
2018-05-21T17:25:53.017Z,45
2018-05-21T17:31:23.577Z,45
2018-05-21T17:36:54.095Z,45
2018-05-21T17:42:23.636Z,45
2018-05-21T17:47:54.467Z,45
2018-05-21T17:47:55.121Z,45
2018-05-21T17:53:23.629Z,44
2018-05-21T17:53:24.505Z,44
2018-05-21T17:58:52.973Z,44
2018-05-21T18:04:23.272Z,44
2018-05-21T18:09:53.818Z,44
2018-05-21T18:15:23.084Z,45
2018-05-21T18:20:53.521Z,45
2018-05-21T18:26:22.841Z,45
2018-05-21T18:31:52.257Z,45
2018-05-21T18:37:21.477Z,45
2018-05-21T18:42:50.794Z,46
2018-05-21T18:48:21.126Z,46
2018-05-21T18:53:51.696Z,46
2018-05-21T18:59:21.717Z,46
2018-05-21T19:04:50.956Z,47
2018-05-21T19:10:21.306Z,47
2018-05-21T19:15:50.676Z,47
2018-05-21T19:21:20.680Z,48
2018-05-21T19:26:50.938Z,48
2018-05-21T19:32:21.152Z,49
2018-05-21T19:32:21.873Z,49
2018-05-21T19:37:50.549Z,49
2018-05-21T19:43:20.489Z,49
2018-05-21T19:48:49.844Z,49
2018-05-21T19:54:18.818Z,50
2018-05-21T19:54:19.459Z,50
2018-05-21T19:59:48.028Z,50
2018-05-21T20:05:17.156Z,50
2018-05-21T20:10:46.274Z,51
2018-05-21T20:16:15.389Z,51
2018-05-21T20:21:44.474Z,51
2018-05-21T20:27:13.574Z,51
2018-05-21T20:32:42.731Z,52
2018-05-21T20:38:12.980Z,52
2018-05-21T20:43:42.062Z,52
2018-05-21T20:49:12.001Z,52
2018-05-21T20:54:42.235Z,53
2018-05-21T21:00:11.284Z,53
2018-05-21T21:05:41.208Z,53
2018-05-21T21:11:11.273Z,53
2018-05-21T21:16:40.545Z,54
2018-05-21T21:22:09.375Z,54
2018-05-21T21:27:38.421Z,54
2018-05-21T21:33:08.466Z,54
2018-05-21T21:38:37.518Z,55
2018-05-21T21:44:07.542Z,55
2018-05-21T21:55:05.696Z,56
2018-05-21T22:00:35.667Z,56
2018-05-21T22:06:04.739Z,56
2018-05-21T22:17:02.620Z,57
2018-05-21T22:22:32.559Z,57
2018-05-21T22:28:01.538Z,58
2018-05-21T22:33:30.606Z,58
2018-05-21T22:38:59.706Z,58
2018-05-21T22:44:28.468Z,59
2018-05-21T22:49:58.465Z,59
2018-05-21T22:55:28.403Z,59
2018-05-21T23:00:57.306Z,60
2018-05-21T23:06:27.450Z,60
2018-05-21T23:11:56.276Z,60
2018-05-21T23:17:25.230Z,61
2018-05-21T23:22:54.248Z,61
2018-05-21T23:28:23.068Z,62
2018-05-21T23:33:53.018Z,62
2018-05-21T23:39:22.910Z,62
2018-05-21T23:44:52.793Z,62
2018-05-21T23:50:22.762Z,63
2018-05-21T23:55:51.685Z,63
